createdAt,value
2023-03-30T00:01:11.314Z,96363.09
2023-03-30T00:03:39.278Z,96354.94
2023-03-30T00:06:08.846Z,96351.91
2023-03-30T00:08:35.839Z,96348.06
2023-03-30T00:11:07.793Z,96348.25
2023-03-30T00:13:36.540Z,96345.81
2023-03-30T00:16:06.184Z,96349.03
2023-03-30T00:18:34.534Z,96344.56
2023-03-30T00:21:04.234Z,96340.91
2023-03-30T00:23:32.250Z,96346.19
2023-03-30T00:26:00.052Z,96338.91
2023-03-30T00:28:27.090Z,96337.69
2023-03-30T00:30:53.964Z,96333.44
2023-03-30T00:33:30.274Z,96327.91
2023-03-30T00:36:04.922Z,96316.94
2023-03-30T00:38:31.858Z,96314.91
2023-03-30T00:41:01.870Z,96317.31
2023-03-30T00:43:29.712Z,96316.53
2023-03-30T00:45:57.513Z,96314.91
2023-03-30T00:48:40.703Z,96311.66
2023-03-30T00:51:12.190Z,96312.06
2023-03-30T00:53:46.108Z,96312.06
2023-03-30T00:56:16.996Z,96310.66
2023-03-30T00:58:45.298Z,96301.53
2023-03-30T01:01:16.026Z,96300.75
2023-03-30T01:03:48.422Z,96294.22
2023-03-30T01:06:22.048Z,96290.38
2023-03-30T01:08:50.506Z,96294.84
2023-03-30T01:11:17.375Z,96291.41
2023-03-30T01:13:54.483Z,96284.09
2023-03-30T01:16:28.749Z,96294.44
2023-03-30T01:19:45.253Z,96292.22
2023-03-30T01:22:58.948Z,96286.94
2023-03-30T01:26:13.291Z,96291.63
2023-03-30T01:29:05.004Z,96291.81
2023-03-30T01:32:12.768Z,96295.13
2023-03-30T01:35:13.555Z,96288.66
2023-03-30T01:38:06.943Z,96285.00
2023-03-30T01:40:46.107Z,96288.22
2023-03-30T01:43:21.213Z,96289.84
2023-03-30T01:45:53.765Z,96289.44
2023-03-30T01:48:44.530Z,96280.91
2023-03-30T01:51:20.597Z,96276.81
2023-03-30T01:54:10.993Z,96267.56
2023-03-30T01:56:44.385Z,96268.72
2023-03-30T01:59:14.864Z,96263.84
2023-03-30T02:01:43.170Z,96269.94
2023-03-30T02:04:11.822Z,96269.53
2023-03-30T02:06:46.082Z,96262.56
2023-03-30T02:09:20.785Z,96286.19
2023-03-30T02:11:51.322Z,96274.78
2023-03-30T02:14:22.895Z,96277.25
2023-03-30T02:16:56.020Z,96287.84
2023-03-30T02:19:23.169Z,96281.44
2023-03-30T02:21:50.534Z,96285.50
2023-03-30T02:24:22.900Z,96282.34
2023-03-30T02:26:51.838Z,96284.78
2023-03-30T02:29:21.141Z,96292.31
2023-03-30T02:31:53.478Z,96287.25
2023-03-30T02:34:45.707Z,96284.63
2023-03-30T02:37:30.450Z,96298.59
2023-03-30T02:40:42.070Z,96303.44
2023-03-30T02:43:45.021Z,96299.75
2023-03-30T02:46:42.562Z,96306.81
2023-03-30T02:49:24.666Z,96305.81
2023-03-30T02:52:13.884Z,96317.97
2023-03-30T02:54:59.032Z,96308.28
2023-03-30T02:57:35.303Z,96318.38
2023-03-30T03:00:44.303Z,96327.28
2023-03-30T03:03:24.086Z,96331.28
2023-03-30T03:05:56.038Z,96309.94
2023-03-30T03:08:25.153Z,96299.53
2023-03-30T03:10:52.197Z,96301.97
2023-03-30T03:13:20.789Z,96311.50
2023-03-30T03:15:49.534Z,96315.31
2023-03-30T03:18:16.740Z,96292.97
2023-03-30T03:20:43.668Z,96285.69
2023-03-30T03:23:10.771Z,96286.94
2023-03-30T03:25:37.754Z,96305.91
2023-03-30T03:28:04.799Z,96318.97
2023-03-30T03:30:31.680Z,96308.00
2023-03-30T03:32:58.703Z,96296.69
2023-03-30T03:35:25.661Z,96301.28
2023-03-30T03:37:52.483Z,96277.19
2023-03-30T03:40:19.335Z,96275.13
2023-03-30T03:42:46.139Z,96277.78
2023-03-30T03:45:13.083Z,96262.13
2023-03-30T03:47:40.195Z,96296.47
2023-03-30T03:50:09.885Z,96305.75
2023-03-30T03:52:37.214Z,96318.34
2023-03-30T03:55:05.029Z,96335.84
2023-03-30T03:57:32.018Z,96354.00
2023-03-30T03:59:59.881Z,96348.25
2023-03-30T04:02:27.837Z,96345.13
2023-03-30T04:04:54.940Z,96339.16
2023-03-30T04:07:22.047Z,96333.94
2023-03-30T04:09:49.084Z,96333.25
2023-03-30T04:12:16.081Z,96343.78
2023-03-30T04:14:42.858Z,96335.19
2023-03-30T04:17:09.678Z,96344.53
2023-03-30T04:19:37.568Z,96340.22
2023-03-30T04:22:05.985Z,96336.38
2023-03-30T04:24:35.539Z,96342.41
2023-03-30T04:27:02.943Z,96338.31
2023-03-30T04:29:30.804Z,96348.00
2023-03-30T04:32:02.718Z,96345.53
2023-03-30T04:34:30.901Z,96343.47
2023-03-30T04:36:58.063Z,96355.38
2023-03-30T04:39:30.224Z,96346.84
2023-03-30T04:41:57.227Z,96345.28
2023-03-30T04:44:24.211Z,96346.78
2023-03-30T04:46:51.089Z,96341.63
2023-03-30T04:49:17.982Z,96343.81
2023-03-30T04:51:44.868Z,96333.69
2023-03-30T04:54:11.844Z,96332.50
2023-03-30T04:56:38.739Z,96328.34
2023-03-30T04:59:05.700Z,96325.84
2023-03-30T05:01:32.611Z,96323.38
2023-03-30T05:03:59.485Z,96323.69
2023-03-30T05:06:27.117Z,96329.69
2023-03-30T05:08:54.013Z,96324.38
2023-03-30T05:11:20.877Z,96326.16
2023-03-30T05:13:47.696Z,96322.78
2023-03-30T05:16:14.706Z,96324.69
2023-03-30T05:18:41.618Z,96313.28
2023-03-30T05:21:08.453Z,96306.47
2023-03-30T05:23:36.169Z,96302.78
2023-03-30T05:26:04.488Z,96300.75
2023-03-30T05:28:32.588Z,96302.75
2023-03-30T05:31:00.082Z,96293.69
2023-03-30T05:33:27.078Z,96293.69
2023-03-30T05:35:54.122Z,96295.09
2023-03-30T05:38:21.129Z,96301.63
2023-03-30T05:40:53.519Z,96288.31
2023-03-30T05:43:21.040Z,96286.66
2023-03-30T05:45:48.381Z,96282.94
2023-03-30T05:48:15.268Z,96284.69
2023-03-30T05:50:42.867Z,96283.53
2023-03-30T05:53:09.871Z,96273.38
2023-03-30T05:55:36.711Z,96276.91
2023-03-30T05:58:03.962Z,96272.38
2023-03-30T06:00:33.349Z,96266.41
2023-03-30T06:03:00.640Z,96270.19
2023-03-30T06:05:27.544Z,96259.72
2023-03-30T06:07:54.428Z,96242.81
2023-03-30T06:10:21.351Z,96249.28
2023-03-30T06:12:48.200Z,96244.34
2023-03-30T06:15:15.267Z,96240.22
2023-03-30T06:17:42.749Z,96236.97
2023-03-30T06:20:13.243Z,96238.94
2023-03-30T06:22:43.926Z,96222.28
2023-03-30T06:25:10.990Z,96243.31
2023-03-30T06:27:37.794Z,96244.84
2023-03-30T06:30:05.264Z,96235.53
2023-03-30T06:32:32.349Z,96233.00
2023-03-30T06:34:59.187Z,96220.09
2023-03-30T06:37:26.030Z,96219.19
2023-03-30T06:39:53.479Z,96216.19
2023-03-30T06:42:20.750Z,96213.63
2023-03-30T06:44:49.856Z,96203.25
2023-03-30T06:47:16.888Z,96196.69
2023-03-30T06:49:43.720Z,96193.34
2023-03-30T06:52:11.422Z,96193.13
2023-03-30T06:54:38.304Z,96190.13
2023-03-30T06:57:05.245Z,96189.97
2023-03-30T06:59:35.036Z,96186.28
2023-03-30T07:02:03.537Z,96188.75
2023-03-30T07:04:30.594Z,96187.56
2023-03-30T07:06:57.460Z,96184.06
2023-03-30T07:09:25.460Z,96166.00
2023-03-30T07:11:53.878Z,96154.72
2023-03-30T07:14:23.117Z,96168.16
2023-03-30T07:16:51.138Z,96169.00
2023-03-30T07:19:18.109Z,96160.59
2023-03-30T07:21:45.080Z,96158.88
2023-03-30T07:24:11.999Z,96159.78
2023-03-30T07:26:38.814Z,96154.00
2023-03-30T07:29:06.775Z,96149.38
2023-03-30T07:31:33.743Z,96142.94
2023-03-30T07:34:02.967Z,96142.72
2023-03-30T07:36:29.872Z,96132.78
2023-03-30T07:38:58.480Z,96128.00
2023-03-30T07:41:25.349Z,96133.13
2023-03-30T07:43:52.241Z,96141.47
2023-03-30T07:46:19.071Z,96131.81
2023-03-30T07:48:45.975Z,96138.97
2023-03-30T07:51:13.940Z,96142.09
2023-03-30T07:53:41.032Z,96127.34
2023-03-30T07:56:08.022Z,96142.16
2023-03-30T07:58:35.380Z,96167.28
2023-03-30T08:01:03.567Z,96164.53
2023-03-30T08:03:32.034Z,96168.06
2023-03-30T08:06:04.787Z,96174.34
2023-03-30T08:08:33.592Z,96177.06
2023-03-30T08:11:01.200Z,96179.06
2023-03-30T08:13:28.282Z,96175.22
2023-03-30T08:15:55.945Z,96158.94
2023-03-30T08:18:22.815Z,96148.75
2023-03-30T08:20:54.298Z,96132.88
2023-03-30T08:23:21.986Z,96137.56
2023-03-30T08:25:52.637Z,96131.22
2023-03-30T08:28:20.175Z,96117.78
2023-03-30T08:30:47.410Z,96118.00
2023-03-30T08:33:15.800Z,96132.50
2023-03-30T08:35:47.703Z,96134.34
2023-03-30T08:38:17.159Z,96111.41
2023-03-30T08:40:47.009Z,96108.19
2023-03-30T08:43:50.925Z,96097.75
2023-03-30T08:46:18.700Z,96102.34
2023-03-30T08:48:46.886Z,96121.53
2023-03-30T08:51:24.597Z,96148.75
2023-03-30T08:53:58.523Z,96171.44
2023-03-30T08:56:42.587Z,96166.28
2023-03-30T08:59:29.771Z,96145.94
2023-03-30T09:02:23.429Z,96117.50
2023-03-30T09:05:14.805Z,96109.56
2023-03-30T09:08:03.892Z,96120.97
2023-03-30T09:10:42.317Z,96114.72
2023-03-30T09:13:16.136Z,96112.03
2023-03-30T09:15:53.509Z,96115.75
2023-03-30T09:18:35.650Z,96109.81
2023-03-30T09:21:06.261Z,96093.56
2023-03-30T09:23:34.250Z,96100.50
2023-03-30T09:26:34.485Z,96098.91
2023-03-30T09:29:49.042Z,96099.34
2023-03-30T09:32:41.923Z,96101.19
2023-03-30T09:35:18.855Z,96113.47
2023-03-30T09:37:46.340Z,96100.94
2023-03-30T09:41:06.629Z,96117.22
2023-03-30T09:43:46.263Z,96116.53
2023-03-30T09:46:16.306Z,96130.31
2023-03-30T09:48:48.697Z,96129.31
2023-03-30T09:51:31.195Z,96114.50
2023-03-30T09:54:04.714Z,96099.34
2023-03-30T09:56:34.525Z,96109.75
2023-03-30T09:59:31.325Z,96106.03
2023-03-30T10:02:13.597Z,96100.34
2023-03-30T10:04:52.778Z,96117.19
2023-03-30T10:07:31.684Z,96135.28
2023-03-30T10:10:04.239Z,96119.00
2023-03-30T10:12:31.092Z,96113.97
2023-03-30T10:15:04.140Z,96128.44
2023-03-30T10:17:31.570Z,96114.81
2023-03-30T10:20:27.783Z,96123.38
2023-03-30T10:22:59.635Z,96103.81
2023-03-30T10:25:33.429Z,96097.13
2023-03-30T10:28:04.845Z,96110.78
2023-03-30T10:30:32.618Z,96117.78
2023-03-30T10:33:02.264Z,96123.66
2023-03-30T10:35:37.997Z,96128.97
2023-03-30T10:38:07.887Z,96123.47
2023-03-30T10:40:38.919Z,96138.91
2023-03-30T10:43:14.653Z,96140.97
2023-03-30T10:45:48.025Z,96144.91
2023-03-30T10:48:34.821Z,96150.22
2023-03-30T10:51:27.629Z,96162.38
2023-03-30T10:54:04.483Z,96165.63
2023-03-30T10:56:43.260Z,96178.16
2023-03-30T10:59:54.794Z,96166.97
2023-03-30T11:02:34.943Z,96167.78
2023-03-30T11:05:15.813Z,96184.34
2023-03-30T11:08:07.686Z,96184.16
2023-03-30T11:10:48.529Z,96200.38
2023-03-30T11:13:39.612Z,96204.34
2023-03-30T11:16:26.096Z,96218.31
2023-03-30T11:19:11.559Z,96203.03
2023-03-30T11:22:29.364Z,96222.47
2023-03-30T11:24:59.425Z,96219.22
2023-03-30T11:27:39.443Z,96228.06
2023-03-30T11:30:22.184Z,96235.69
2023-03-30T11:33:26.928Z,96238.28
2023-03-30T11:36:19.009Z,96229.47
2023-03-30T11:38:58.730Z,96243.41
2023-03-30T11:42:04.524Z,96239.47
2023-03-30T11:44:32.344Z,96233.34
2023-03-30T11:47:20.478Z,96243.19
2023-03-30T11:50:24.388Z,96237.88
2023-03-30T11:53:13.186Z,96249.22
2023-03-30T11:56:11.246Z,96244.88
2023-03-30T11:59:05.239Z,96264.47
2023-03-30T12:02:08.574Z,96265.91
2023-03-30T12:04:50.775Z,96284.09
2023-03-30T12:07:45.907Z,96289.53
2023-03-30T12:10:33.876Z,96308.81
2023-03-30T12:13:01.916Z,96295.88
2023-03-30T12:15:58.590Z,96288.19
2023-03-30T12:18:39.347Z,96280.44
2023-03-30T12:21:35.772Z,96263.88
2023-03-30T12:24:28.995Z,96268.25
2023-03-30T12:27:05.350Z,96254.69
2023-03-30T12:32:29.221Z,96249.34
2023-03-30T12:34:58.085Z,96222.38
2023-03-30T12:37:35.478Z,96234.63
2023-03-30T12:40:22.259Z,96218.34
2023-03-30T12:43:05.923Z,96204.94
2023-03-30T12:45:34.075Z,96212.25
2023-03-30T12:48:42.063Z,96212.03
2023-03-30T12:51:53.754Z,96204.41
2023-03-30T12:54:57.381Z,96207.88
2023-03-30T12:57:50.501Z,96218.94
2023-03-30T13:00:40.792Z,96204.19
2023-03-30T13:03:33.475Z,96207.66
2023-03-30T13:06:02.582Z,96200.13
2023-03-30T13:08:39.870Z,96202.88
2023-03-30T13:11:14.052Z,96212.25
2023-03-30T13:14:15.410Z,96210.38
2023-03-30T13:16:51.536Z,96209.16
2023-03-30T13:19:28.905Z,96198.91
2023-03-30T13:22:12.308Z,96193.84
2023-03-30T13:24:42.215Z,96196.13
2023-03-30T13:27:14.911Z,96194.94
2023-03-30T13:29:49.702Z,96186.44
2023-03-30T13:32:33.917Z,96202.22
2023-03-30T13:35:29.677Z,96206.34
2023-03-30T13:38:26.753Z,96216.84
2023-03-30T13:41:26.248Z,96209.94
2023-03-30T13:44:29.964Z,96208.50
2023-03-30T13:47:09.834Z,96189.91
2023-03-30T13:49:42.432Z,96191.97
2023-03-30T13:52:38.244Z,96178.16
2023-03-30T13:55:16.631Z,96179.59
2023-03-30T13:57:44.610Z,96188.72
2023-03-30T14:00:52.175Z,96199.84
2023-03-30T14:03:44.373Z,96196.72
2023-03-30T14:06:14.378Z,96205.44
2023-03-30T14:08:47.932Z,96204.78
2023-03-30T14:11:46.521Z,96191.78
2023-03-30T14:14:23.154Z,96172.00
2023-03-30T14:16:51.297Z,96187.28
2023-03-30T14:19:37.407Z,96183.56
2023-03-30T14:22:19.262Z,96184.06
2023-03-30T14:25:04.742Z,96207.84
2023-03-30T14:27:38.968Z,96203.50
2023-03-30T14:30:19.680Z,96179.19
2023-03-30T14:32:46.717Z,96158.34
2023-03-30T14:35:20.819Z,96151.38
2023-03-30T14:37:52.050Z,96148.78
2023-03-30T14:40:22.468Z,96137.28
2023-03-30T14:42:50.918Z,96130.63
2023-03-30T14:45:19.448Z,96121.56
2023-03-30T14:47:48.081Z,96130.38
2023-03-30T14:50:16.759Z,96118.03
2023-03-30T14:52:46.784Z,96114.31
2023-03-30T14:55:23.784Z,96128.72
2023-03-30T14:57:51.257Z,96122.69
2023-03-30T15:00:22.422Z,96127.56
2023-03-30T15:02:59.020Z,96121.28
2023-03-30T15:05:34.173Z,96103.28
2023-03-30T15:08:03.602Z,96109.97
2023-03-30T15:10:44.030Z,96094.75
2023-03-30T15:13:40.163Z,96101.72
2023-03-30T15:16:07.694Z,96097.75
2023-03-30T15:18:36.419Z,96098.00
2023-03-30T15:21:03.728Z,96084.09
2023-03-30T15:23:41.351Z,96108.81
2023-03-30T15:26:09.709Z,96114.94
2023-03-30T15:28:53.541Z,96106.16
2023-03-30T15:31:20.991Z,96090.34
2023-03-30T15:33:53.242Z,96080.19
2023-03-30T15:36:25.329Z,96080.06
2023-03-30T15:38:58.757Z,96073.41
2023-03-30T15:41:56.897Z,96077.94
2023-03-30T15:44:24.964Z,96074.47
2023-03-30T15:46:56.190Z,96084.69
2023-03-30T15:49:40.378Z,96086.91
2023-03-30T15:52:19.498Z,96108.47
2023-03-30T15:54:55.498Z,96109.75
2023-03-30T15:57:32.208Z,96110.22
2023-03-30T16:00:12.434Z,96114.78
2023-03-30T16:02:47.402Z,96122.81
2023-03-30T16:05:22.287Z,96121.19
2023-03-30T16:07:49.464Z,96124.66
2023-03-30T16:10:27.167Z,96121.00
2023-03-30T16:12:56.811Z,96115.56
2023-03-30T16:15:27.674Z,96116.91
2023-03-30T16:17:54.736Z,96123.09
2023-03-30T16:20:31.359Z,96120.94
2023-03-30T16:22:58.655Z,96107.47
2023-03-30T16:25:38.353Z,96116.41
2023-03-30T16:28:18.304Z,96116.41
2023-03-30T16:30:48.290Z,96106.41
2023-03-30T16:33:15.350Z,96106.97
2023-03-30T16:35:42.196Z,96113.50
2023-03-30T16:38:14.537Z,96123.06
2023-03-30T16:40:44.508Z,96112.88
2023-03-30T16:43:11.675Z,96108.19
2023-03-30T16:45:39.198Z,96111.59
2023-03-30T16:48:06.482Z,96114.94
2023-03-30T16:50:56.610Z,96111.09
2023-03-30T16:53:23.590Z,96105.13
2023-03-30T16:55:50.500Z,96110.75
2023-03-30T16:58:17.367Z,96103.50
2023-03-30T17:00:53.237Z,96100.47
2023-03-30T17:03:20.895Z,96108.69
2023-03-30T17:05:48.863Z,96102.53
2023-03-30T17:08:24.858Z,96112.75
2023-03-30T17:10:54.106Z,96118.63
2023-03-30T17:13:21.104Z,96112.25
2023-03-30T17:15:48.025Z,96113.88
2023-03-30T17:18:22.308Z,96127.44
2023-03-30T17:20:52.248Z,96116.91
2023-03-30T17:23:20.862Z,96121.56
2023-03-30T17:25:49.447Z,96131.41
2023-03-30T17:28:28.101Z,96131.19
2023-03-30T17:30:58.212Z,96131.09
2023-03-30T17:33:26.069Z,96137.19
2023-03-30T17:36:07.337Z,96131.19
2023-03-30T17:38:34.250Z,96135.09
2023-03-30T17:41:01.174Z,96139.25
2023-03-30T17:43:28.103Z,96131.84
2023-03-30T17:45:55.034Z,96138.00
2023-03-30T17:48:22.407Z,96139.00
2023-03-30T17:50:50.926Z,96150.75
2023-03-30T17:53:20.670Z,96143.94
2023-03-30T17:55:50.330Z,96145.94
2023-03-30T17:58:34.676Z,96148.53
2023-03-30T18:01:07.638Z,96155.56
2023-03-30T18:03:36.068Z,96163.16
2023-03-30T18:06:03.075Z,96172.22
2023-03-30T18:08:30.219Z,96167.66
2023-03-30T18:11:01.391Z,96167.97
2023-03-30T18:13:29.635Z,96167.88
2023-03-30T18:15:59.463Z,96172.72
2023-03-30T18:18:30.187Z,96175.59
2023-03-30T18:21:03.101Z,96175.44
2023-03-30T18:23:33.125Z,96178.00
2023-03-30T18:25:59.991Z,96181.78
2023-03-30T18:28:27.959Z,96181.31
2023-03-30T18:31:00.502Z,96193.09
2023-03-30T18:33:27.490Z,96193.06
2023-03-30T18:35:56.750Z,96207.22
2023-03-30T18:38:25.246Z,96204.06
2023-03-30T18:40:58.099Z,96212.34
2023-03-30T18:43:28.479Z,96215.25
2023-03-30T18:46:00.801Z,96216.44
2023-03-30T18:48:28.945Z,96218.34
2023-03-30T18:51:01.015Z,96217.59
2023-03-30T18:53:29.022Z,96227.44
2023-03-30T18:56:00.144Z,96220.13
2023-03-30T18:58:30.398Z,96223.22
2023-03-30T19:00:57.607Z,96226.50
2023-03-30T19:03:27.195Z,96228.00
2023-03-30T19:05:54.585Z,96230.41
2023-03-30T19:08:24.597Z,96236.66
2023-03-30T19:10:55.766Z,96240.19
2023-03-30T19:13:25.257Z,96244.38
2023-03-30T19:15:53.017Z,96246.28
2023-03-30T19:18:20.750Z,96246.25
2023-03-30T19:20:49.706Z,96252.00
2023-03-30T19:23:17.346Z,96253.59
2023-03-30T19:25:45.311Z,96257.72
2023-03-30T19:28:14.542Z,96273.28
2023-03-30T19:30:41.778Z,96261.53
2023-03-30T19:33:13.145Z,96260.63
2023-03-30T19:35:41.357Z,96257.03
2023-03-30T19:38:09.064Z,96266.84
2023-03-30T19:40:38.593Z,96264.16
2023-03-30T19:43:05.742Z,96271.63
2023-03-30T19:45:33.214Z,96260.28
2023-03-30T19:48:00.179Z,96271.03
2023-03-30T19:50:28.048Z,96275.34
2023-03-30T19:52:56.941Z,96273.59
2023-03-30T19:55:23.790Z,96272.53
2023-03-30T19:57:50.914Z,96279.31
2023-03-30T20:00:18.807Z,96268.94
2023-03-30T20:02:49.402Z,96280.41
2023-03-30T20:05:17.594Z,96279.19
2023-03-30T20:07:46.955Z,96270.63
2023-03-30T20:10:21.369Z,96276.81
2023-03-30T20:12:49.577Z,96281.38
2023-03-30T20:15:17.385Z,96281.06
2023-03-30T20:17:44.661Z,96289.59
2023-03-30T20:20:16.951Z,96285.22
2023-03-30T20:22:44.959Z,96290.63
2023-03-30T20:25:14.212Z,96291.34
2023-03-30T20:27:41.422Z,96286.56
2023-03-30T20:30:09.727Z,96293.41
2023-03-30T20:32:36.598Z,96294.28
2023-03-30T20:35:04.402Z,96282.38
2023-03-30T20:37:31.414Z,96281.19
2023-03-30T20:40:04.909Z,96285.97
2023-03-30T20:42:32.684Z,96275.06
2023-03-30T20:45:00.814Z,96268.59
2023-03-30T20:47:30.631Z,96272.97
2023-03-30T20:49:58.942Z,96273.44
2023-03-30T20:52:27.161Z,96268.56
2023-03-30T20:54:54.291Z,96268.41
2023-03-30T20:57:22.381Z,96268.28
2023-03-30T20:59:50.629Z,96255.06
2023-03-30T21:02:19.744Z,96254.31
2023-03-30T21:04:47.344Z,96262.09
2023-03-30T21:07:16.317Z,96246.97
2023-03-30T21:09:43.664Z,96252.53
2023-03-30T21:12:11.163Z,96236.00
2023-03-30T21:14:38.044Z,96246.59
2023-03-30T21:17:04.969Z,96237.63
2023-03-30T21:19:32.216Z,96233.41
2023-03-30T21:22:00.304Z,96234.69
2023-03-30T21:24:27.757Z,96237.59
2023-03-30T21:26:54.633Z,96241.66
2023-03-30T21:29:22.909Z,96234.38
2023-03-30T21:31:50.158Z,96233.50
2023-03-30T21:34:18.598Z,96220.94
2023-03-30T21:36:46.128Z,96224.94
2023-03-30T21:39:13.445Z,96216.91
2023-03-30T21:41:40.372Z,96216.28
2023-03-30T21:44:07.616Z,96209.44
2023-03-30T21:46:34.651Z,96215.38
2023-03-30T21:49:01.496Z,96213.38
2023-03-30T21:51:30.378Z,96214.28
2023-03-30T21:53:58.344Z,96216.75
2023-03-30T21:56:29.091Z,96208.66
2023-03-30T21:58:56.437Z,96206.53
2023-03-30T22:01:24.601Z,96206.53
2023-03-30T22:03:53.604Z,96211.03
2023-03-30T22:06:21.877Z,96196.06
2023-03-30T22:08:49.246Z,96198.53
2023-03-30T22:11:23.439Z,96197.47
2023-03-30T22:13:52.083Z,96192.84
2023-03-30T22:16:23.914Z,96195.88
2023-03-30T22:18:51.909Z,96191.41
2023-03-30T22:21:25.319Z,96184.16
2023-03-30T22:23:55.388Z,96178.81
2023-03-30T22:26:22.440Z,96184.47
2023-03-30T22:28:49.325Z,96183.00
2023-03-30T22:31:16.794Z,96182.84
2023-03-30T22:33:44.976Z,96176.56
2023-03-30T22:36:25.265Z,96169.09
2023-03-30T22:38:52.798Z,96166.88
2023-03-30T22:41:23.858Z,96162.00
2023-03-30T22:43:52.660Z,96161.03
2023-03-30T22:46:20.257Z,96159.81
2023-03-30T22:48:49.642Z,96160.16
2023-03-30T22:51:23.450Z,96154.31
2023-03-30T22:53:50.473Z,96145.66
2023-03-30T22:56:17.481Z,96150.91
2023-03-30T22:58:44.387Z,96145.25
2023-03-30T23:01:11.994Z,96140.00
2023-03-30T23:03:39.155Z,96131.88
2023-03-30T23:06:06.447Z,96133.53
2023-03-30T23:08:33.783Z,96133.53
2023-03-30T23:11:04.838Z,96135.56
2023-03-30T23:13:38.333Z,96132.75
2023-03-30T23:16:06.630Z,96131.13
2023-03-30T23:18:34.185Z,96131.19
2023-03-30T23:21:06.791Z,96123.09
2023-03-30T23:23:40.537Z,96121.94
2023-03-30T23:26:10.515Z,96117.34
2023-03-30T23:28:41.235Z,96124.97
2023-03-30T23:31:15.568Z,96119.34
2023-03-30T23:33:43.505Z,96120.34
2023-03-30T23:36:13.623Z,96117.09
2023-03-30T23:38:41.365Z,96100.50
2023-03-30T23:41:08.655Z,96104.56
2023-03-30T23:43:35.701Z,96108.22
2023-03-30T23:46:02.738Z,96109.81
2023-03-30T23:48:29.960Z,96103.56
2023-03-30T23:50:57.834Z,96097.28
2023-03-30T23:53:26.288Z,96084.34
2023-03-30T23:55:53.412Z,96082.09
2023-03-30T23:58:20.378Z,96070.78
